createdAt,value
2023-03-06T00:00:38.110Z,27.29
2023-03-06T00:01:38.033Z,27.28
2023-03-06T00:02:37.974Z,27.28
2023-03-06T00:03:38.038Z,27.35
2023-03-06T00:04:37.879Z,27.26
2023-03-06T00:05:37.836Z,27.25
2023-03-06T00:06:37.778Z,27.30
2023-03-06T00:07:37.698Z,27.34
2023-03-06T00:08:37.703Z,27.35
2023-03-06T00:09:40.178Z,27.26
2023-03-06T00:10:37.750Z,27.33
2023-03-06T00:11:37.713Z,27.31
2023-03-06T00:12:37.678Z,27.37
2023-03-06T00:13:37.594Z,27.32
2023-03-06T00:14:37.609Z,27.27
2023-03-06T00:15:37.541Z,27.29
2023-03-06T00:16:37.519Z,27.29
2023-03-06T00:17:37.414Z,27.29
2023-03-06T00:18:37.347Z,27.36
2023-03-06T00:19:37.340Z,27.30
2023-03-06T00:20:37.297Z,27.26
2023-03-06T00:21:37.282Z,27.38
2023-03-06T00:22:37.148Z,27.32
2023-03-06T00:23:37.117Z,27.36
2023-03-06T00:24:39.175Z,27.30
2023-03-06T00:25:37.001Z,27.35
2023-03-06T00:26:36.926Z,27.33
2023-03-06T00:27:36.926Z,27.35
2023-03-06T00:28:36.817Z,27.37
2023-03-06T00:29:36.801Z,27.30
2023-03-06T00:30:36.724Z,27.30
2023-03-06T00:31:36.770Z,27.30
2023-03-06T00:32:36.815Z,27.38
2023-03-06T00:33:36.618Z,27.37
2023-03-06T00:34:36.702Z,27.33
2023-03-06T00:35:36.716Z,27.32
2023-03-06T00:36:36.430Z,27.31
2023-03-06T00:37:36.403Z,27.34
2023-03-06T00:38:36.355Z,27.38
2023-03-06T00:39:36.254Z,27.34
2023-03-06T00:40:36.248Z,27.29
2023-03-06T00:41:36.188Z,27.34
2023-03-06T00:42:36.371Z,27.37
2023-03-06T00:43:36.105Z,27.31
2023-03-06T00:44:36.052Z,27.35
2023-03-06T00:45:36.196Z,27.38
2023-03-06T00:46:35.941Z,27.35
2023-03-06T00:47:35.921Z,27.35
2023-03-06T00:48:35.834Z,27.41
2023-03-06T00:49:35.798Z,27.37
2023-03-06T00:50:35.870Z,27.41
2023-03-06T00:51:35.703Z,27.39
2023-03-06T00:52:35.652Z,27.37
2023-03-06T00:53:35.680Z,27.38
2023-03-06T00:54:35.575Z,27.37
2023-03-06T00:55:35.533Z,27.38
2023-03-06T00:56:35.461Z,27.35
2023-03-06T00:57:35.402Z,27.37
2023-03-06T00:58:35.365Z,27.35
2023-03-06T01:26:35.658Z,27.39
2023-03-06T02:32:36.553Z,27.50
2023-03-06T04:31:28.338Z,17.96
2023-03-06T04:32:28.368Z,17.95
2023-03-06T04:33:28.368Z,17.83
2023-03-06T04:35:28.280Z,18.16
2023-03-06T04:36:28.221Z,17.96
2023-03-06T04:37:28.213Z,17.96
2023-03-06T04:38:28.149Z,17.93
2023-03-06T04:39:28.117Z,17.85
2023-03-06T04:40:28.145Z,17.87
2023-03-06T04:41:28.077Z,17.93
2023-03-06T04:42:28.072Z,17.94
2023-03-06T04:43:28.029Z,17.82
2023-03-06T04:45:28.039Z,17.78
2023-03-06T04:46:27.972Z,18.04
2023-03-06T04:47:27.957Z,17.85
2023-03-06T04:48:27.964Z,17.81
2023-03-06T04:49:27.934Z,17.75
2023-03-06T04:50:27.899Z,17.72
2023-03-06T04:51:28.080Z,17.69
2023-03-06T04:52:27.852Z,18.06
2023-03-06T04:53:27.965Z,17.79
2023-03-06T04:54:28.285Z,17.75
2023-03-06T04:55:27.824Z,17.64
2023-03-06T04:56:27.847Z,17.63
2023-03-06T04:57:27.777Z,17.63
2023-03-06T04:58:27.821Z,18.20
2023-03-06T04:59:27.780Z,17.67
2023-03-06T05:00:27.709Z,17.61
2023-03-06T05:01:27.679Z,17.64
2023-03-06T05:02:27.740Z,17.54
2023-03-06T05:03:27.763Z,17.64
2023-03-06T05:04:27.664Z,17.63
2023-03-06T05:05:27.633Z,17.66
2023-03-06T05:06:27.596Z,17.56
2023-03-06T05:07:27.549Z,17.63
2023-03-06T05:08:27.524Z,17.47
2023-03-06T05:09:27.569Z,17.70
2023-03-06T05:10:28.284Z,17.54
2023-03-06T05:11:27.507Z,17.54
2023-03-06T05:12:27.449Z,17.55
2023-03-06T05:13:27.461Z,17.45
2023-03-06T05:14:27.429Z,17.45
2023-03-06T05:15:27.453Z,17.91
2023-03-06T05:16:27.465Z,17.55
2023-03-06T05:17:27.398Z,17.50
2023-03-06T05:18:27.385Z,17.54
2023-03-06T05:19:27.361Z,17.39
2023-03-06T05:20:48.385Z,17.47
2023-03-06T05:21:27.297Z,17.54
2023-03-06T05:22:28.291Z,17.55
2023-03-06T05:23:27.317Z,17.58
2023-03-06T05:24:27.266Z,17.47
2023-03-06T05:25:27.277Z,17.47
2023-03-06T05:26:27.221Z,17.74
2023-03-06T05:27:27.200Z,17.49
2023-03-06T05:28:27.240Z,17.54
2023-03-06T05:29:27.141Z,17.49
2023-03-06T05:30:27.191Z,17.60
2023-03-06T05:31:27.105Z,17.46
2023-03-06T05:32:27.145Z,17.67
2023-03-06T05:33:27.048Z,17.55
2023-03-06T05:34:27.038Z,17.50
2023-03-06T05:36:26.996Z,17.43
2023-03-06T05:37:26.952Z,17.46
2023-03-06T05:38:26.934Z,17.70
2023-03-06T05:39:26.924Z,17.55
2023-03-06T05:40:26.929Z,17.49
2023-03-06T05:41:26.878Z,17.50
2023-03-06T05:42:28.558Z,17.46
2023-03-06T05:43:26.828Z,17.49
2023-03-06T05:44:26.826Z,17.77
2023-03-06T05:45:26.809Z,17.55
2023-03-06T05:46:26.806Z,17.46
2023-03-06T05:47:27.791Z,17.43
2023-03-06T05:48:26.734Z,17.44
2023-03-06T05:49:26.721Z,17.50
2023-03-06T05:50:26.859Z,17.68
2023-03-06T05:51:26.723Z,17.61
2023-03-06T05:52:26.696Z,17.50
2023-03-06T05:53:26.704Z,17.34
2023-03-06T05:54:26.645Z,17.41
2023-03-06T05:55:26.609Z,17.56
2023-03-06T05:56:26.754Z,17.61
2023-03-06T05:57:26.547Z,17.49
2023-03-06T05:58:26.521Z,17.46
2023-03-06T05:59:26.542Z,17.41
2023-03-06T06:00:26.513Z,17.73
2023-03-06T06:01:26.576Z,17.84
2023-03-06T06:02:26.527Z,18.41
2023-03-06T06:03:26.495Z,19.05
2023-03-06T06:04:26.419Z,19.58
2023-03-06T06:05:26.547Z,19.64
2023-03-06T06:06:26.416Z,19.84
2023-03-06T06:07:26.337Z,19.64
2023-03-06T06:08:26.364Z,19.38
2023-03-06T06:09:26.290Z,19.49
2023-03-06T06:10:26.226Z,19.54
2023-03-06T06:11:26.202Z,19.51
2023-03-06T06:12:26.171Z,19.53
2023-03-06T06:13:26.195Z,19.63
2023-03-06T06:14:26.128Z,19.82
2023-03-06T06:15:26.105Z,19.74
2023-03-06T06:16:26.107Z,19.76
2023-03-06T06:17:26.029Z,19.89
2023-03-06T06:18:25.996Z,19.94
2023-03-06T06:19:25.987Z,20.07
2023-03-06T06:20:25.959Z,20.09
2023-03-06T06:21:25.988Z,20.15
2023-03-06T06:22:25.894Z,20.16
2023-03-06T06:23:25.861Z,20.30
2023-03-06T06:24:25.859Z,20.30
2023-03-06T06:27:25.725Z,20.51
2023-03-06T06:28:25.756Z,20.58
2023-03-06T06:30:25.813Z,20.58
2023-03-06T06:31:25.705Z,20.71
2023-03-06T06:32:25.663Z,22.08
2023-03-06T06:33:25.610Z,21.39
2023-03-06T06:34:25.914Z,20.94
2023-03-06T06:35:25.725Z,20.89
2023-03-06T06:36:26.370Z,20.23
2023-03-06T06:37:25.546Z,20.02
2023-03-06T06:38:25.540Z,20.28
2023-03-06T06:39:25.504Z,19.59
2023-03-06T06:43:25.432Z,22.12
2023-03-06T06:44:25.421Z,22.51
2023-03-06T06:45:25.382Z,23.55
2023-03-06T06:47:17.895Z,22.14
2023-03-06T06:47:26.107Z,23.37
2023-03-06T06:49:25.383Z,23.17
2023-03-06T06:50:26.179Z,23.43
2023-03-06T06:52:25.713Z,23.83
2023-03-06T06:54:27.156Z,23.42
2023-03-06T06:55:30.287Z,23.56
2023-03-06T07:33:23.539Z,25.54
2023-03-06T07:46:23.427Z,24.33
2023-03-06T07:48:22.853Z,24.84
2023-03-06T08:02:43.294Z,24.27
2023-03-06T08:03:46.262Z,24.42
2023-03-06T08:04:44.506Z,23.93
2023-03-06T08:05:43.022Z,24.10
2023-03-06T08:06:42.918Z,23.84
2023-03-06T08:07:43.231Z,24.39
2023-03-06T08:08:42.931Z,24.62
2023-03-06T08:09:43.234Z,24.21
2023-03-06T08:10:42.611Z,24.16
2023-03-06T08:11:42.683Z,24.33
2023-03-06T08:12:42.430Z,24.34
2023-03-06T08:13:43.841Z,24.40
2023-03-06T08:14:42.801Z,24.49
2023-03-06T08:15:42.293Z,24.36
2023-03-06T08:16:42.212Z,24.71
2023-03-06T08:17:42.208Z,24.47
2023-03-06T08:18:45.118Z,24.56
2023-03-06T08:19:42.000Z,24.65
2023-03-06T08:20:42.287Z,24.52
2023-03-06T08:21:42.060Z,24.53
2023-03-06T08:22:42.281Z,24.51
2023-03-06T08:23:43.205Z,24.51
2023-03-06T08:24:41.590Z,24.70
2023-03-06T08:25:41.497Z,24.45
2023-03-06T08:26:41.393Z,24.19
2023-03-06T08:27:41.429Z,24.58
2023-03-06T08:28:41.421Z,24.48
2023-03-06T08:29:41.192Z,24.42
2023-03-06T08:30:41.157Z,24.60
2023-03-06T08:31:41.140Z,24.76
2023-03-06T08:32:40.995Z,24.86
2023-03-06T08:33:42.693Z,25.14
2023-03-06T08:34:42.042Z,24.95
2023-03-06T08:35:42.852Z,25.09
2023-03-06T08:36:41.292Z,25.14
2023-03-06T08:37:40.634Z,24.25
2023-03-06T08:38:40.579Z,24.40
2023-03-06T08:39:40.811Z,23.81
2023-03-06T08:40:40.607Z,23.97
2023-03-06T08:41:40.357Z,25.84
2023-03-06T08:42:40.444Z,24.21
2023-03-06T08:43:41.175Z,23.55
2023-03-06T08:44:41.203Z,23.25
2023-03-06T08:45:40.147Z,23.03
2023-03-06T08:46:39.949Z,22.84
2023-03-06T08:47:39.885Z,23.83
2023-03-06T08:48:39.955Z,23.41
2023-03-06T08:49:39.845Z,23.34
2023-03-06T08:50:39.785Z,23.25
2023-03-06T08:52:39.737Z,22.08
2023-03-06T08:53:43.582Z,21.73
2023-03-06T08:54:40.212Z,22.06
2023-03-06T08:55:39.549Z,21.25
2023-03-06T08:57:39.357Z,21.00
2023-03-06T08:58:39.342Z,20.71
2023-03-06T08:59:39.315Z,20.70
2023-03-06T09:00:39.375Z,21.09
2023-03-06T09:01:39.266Z,20.69
2023-03-06T09:02:39.219Z,20.34
2023-03-06T09:03:40.787Z,20.48
2023-03-06T09:04:39.200Z,20.68
2023-03-06T09:05:39.116Z,20.43
2023-03-06T09:06:39.050Z,20.54
2023-03-06T09:07:39.725Z,20.74
2023-03-06T09:08:38.988Z,20.72
2023-03-06T09:09:41.045Z,20.79
2023-03-06T09:10:38.907Z,21.29
2023-03-06T09:11:38.814Z,21.35
2023-03-06T09:12:49.475Z,21.59
2023-03-06T09:13:39.720Z,21.77
2023-03-06T09:14:38.685Z,21.67
2023-03-06T09:15:38.637Z,21.87
2023-03-06T09:16:38.580Z,21.80
2023-03-06T09:17:38.572Z,21.22
2023-03-06T09:18:38.448Z,20.91
2023-03-06T09:19:38.352Z,20.70
2023-03-06T09:20:38.300Z,20.96
2023-03-06T09:21:38.257Z,20.72
2023-03-06T09:22:38.206Z,20.42
2023-03-06T09:23:38.239Z,20.46
2023-03-06T09:24:38.158Z,20.48
2023-03-06T09:25:38.222Z,20.21
2023-03-06T09:26:46.177Z,20.26
2023-03-06T09:27:39.045Z,20.12
2023-03-06T09:28:39.327Z,20.80
2023-03-06T09:29:38.501Z,20.46
2023-03-06T09:30:37.891Z,20.45
2023-03-06T09:31:37.828Z,20.68
2023-03-06T09:32:37.917Z,20.92
2023-03-06T09:33:37.791Z,20.61
2023-03-06T09:34:37.760Z,20.40
2023-03-06T09:35:37.679Z,20.42
2023-03-06T09:36:53.417Z,20.20
2023-03-06T09:37:38.538Z,20.15
2023-03-06T09:38:37.486Z,20.00
2023-03-06T09:39:37.480Z,20.12
2023-03-06T09:40:37.414Z,20.17
2023-03-06T09:41:37.315Z,20.11
2023-03-06T10:04:51.535Z,23.35
2023-03-06T10:36:34.276Z,22.36
2023-03-06T10:37:34.097Z,22.77
2023-03-06T10:38:34.179Z,22.95
2023-03-06T10:39:33.955Z,24.25
2023-03-06T10:40:33.847Z,23.61
2023-03-06T10:42:34.295Z,23.91
2023-03-06T10:43:36.261Z,23.93
2023-03-06T10:44:34.858Z,23.74
2023-03-06T10:45:48.519Z,23.80
2023-03-06T10:46:34.644Z,23.46
2023-03-06T10:47:33.344Z,23.51
2023-03-06T10:48:33.305Z,23.66
2023-03-06T10:49:33.227Z,23.56
2023-03-06T10:50:33.301Z,23.44
2023-03-06T10:51:34.351Z,23.45
2023-03-06T10:52:32.984Z,23.55
2023-03-06T10:53:33.797Z,23.60
2023-03-06T10:54:33.188Z,23.69
2023-03-06T10:55:33.986Z,23.68
2023-03-06T10:56:32.813Z,23.74
2023-03-06T10:57:32.902Z,23.69
2023-03-06T10:58:32.658Z,23.96
2023-03-06T10:59:32.486Z,24.34
2023-03-06T11:01:32.359Z,24.15
2023-03-06T11:02:32.195Z,24.34
2023-03-06T11:03:32.139Z,24.45
2023-03-06T11:04:32.159Z,24.53
2023-03-06T11:05:31.974Z,24.51
2023-03-06T11:07:31.781Z,24.75
2023-03-06T11:08:31.834Z,24.90
2023-03-06T11:09:31.611Z,24.87
2023-03-06T11:10:31.544Z,25.11
2023-03-06T11:11:37.388Z,23.78
2023-03-06T11:12:32.398Z,22.09
2023-03-06T11:13:31.278Z,21.72
2023-03-06T11:14:31.197Z,21.38
2023-03-06T11:15:31.160Z,21.60
2023-03-06T11:16:31.389Z,20.48
2023-03-06T11:17:32.019Z,20.37
2023-03-06T11:18:30.878Z,20.92
2023-03-06T11:19:30.775Z,20.43
2023-03-06T11:20:44.624Z,22.32
2023-03-06T11:21:31.732Z,22.53
2023-03-06T11:22:30.688Z,23.29
2023-03-06T11:23:30.929Z,23.52
2023-03-06T11:24:30.412Z,23.07
2023-03-06T11:25:30.397Z,23.14
2023-03-06T11:26:30.281Z,23.11
2023-03-06T11:27:30.185Z,23.33
2023-03-06T11:28:30.071Z,23.43
2023-03-06T11:29:30.810Z,23.46
2023-03-06T11:33:30.718Z,23.61
2023-03-06T12:15:26.184Z,25.15
2023-03-06T12:16:26.219Z,25.11
2023-03-06T12:17:26.162Z,24.96
2023-03-06T12:18:25.939Z,25.11
2023-03-06T12:19:25.829Z,24.79
2023-03-06T12:20:25.732Z,25.06
2023-03-06T12:21:25.635Z,24.81
2023-03-06T12:22:25.659Z,24.70
2023-03-06T12:23:25.580Z,24.53
2023-03-06T12:24:25.382Z,24.99
2023-03-06T12:25:25.302Z,25.08
2023-03-06T12:26:25.286Z,25.01
2023-03-06T12:27:25.153Z,25.32
2023-03-06T12:28:25.390Z,24.99
2023-03-06T12:29:24.964Z,24.61
2023-03-06T12:30:24.977Z,24.58
2023-03-06T12:31:24.960Z,24.54
2023-03-06T12:32:26.277Z,24.65
2023-03-06T12:33:25.888Z,24.64
2023-03-06T12:34:24.512Z,24.59
2023-03-06T12:35:24.458Z,24.59
2023-03-06T12:36:24.317Z,24.49
2023-03-06T12:37:31.097Z,24.49
2023-03-06T12:38:24.560Z,24.44
2023-03-06T12:39:24.074Z,24.40
2023-03-06T12:40:24.419Z,24.40
2023-03-06T12:41:24.021Z,24.33
2023-03-06T12:42:25.001Z,24.33
2023-03-06T12:43:23.721Z,24.33
2023-03-06T12:44:23.660Z,24.15
2023-03-06T12:45:23.617Z,24.14
2023-03-06T12:46:23.585Z,23.96
2023-03-06T12:47:24.408Z,23.89
2023-03-06T12:48:23.562Z,23.88
2023-03-06T12:49:31.858Z,23.74
2023-03-06T12:50:24.121Z,23.81
2023-03-06T12:51:23.161Z,23.74
2023-03-06T12:52:29.701Z,23.75
2023-03-06T12:53:23.874Z,23.81
2023-03-06T12:54:22.741Z,23.64
2023-03-06T12:55:25.527Z,23.59
2023-03-06T12:56:22.555Z,23.59
2023-03-06T12:57:22.586Z,23.65
2023-03-06T12:58:22.504Z,23.64
2023-03-06T12:59:22.285Z,23.63
2023-03-06T13:00:22.228Z,23.59
2023-03-06T13:01:22.171Z,23.46
2023-03-06T13:02:22.164Z,23.50
2023-03-06T13:03:21.978Z,23.52
2023-03-06T13:04:21.889Z,23.54
2023-03-06T13:05:21.779Z,23.46
2023-03-06T13:06:21.764Z,23.61
2023-03-06T13:07:21.614Z,23.54
2023-03-06T13:08:21.560Z,23.43
2023-03-06T13:09:21.413Z,23.56
2023-03-06T13:10:21.410Z,23.43
2023-03-06T13:11:21.271Z,23.64
2023-03-06T13:12:21.178Z,24.15
2023-03-06T13:13:21.126Z,23.36
2023-03-06T13:14:21.003Z,23.48
2023-03-06T13:15:20.932Z,23.53
2023-03-06T13:16:20.881Z,23.54
2023-03-06T13:17:20.730Z,23.41
2023-03-06T13:18:21.855Z,23.40
2023-03-06T13:19:20.603Z,23.37
2023-03-06T13:20:20.498Z,23.34
2023-03-06T13:21:20.443Z,23.33
2023-03-06T13:22:20.303Z,23.37
2023-03-06T13:23:20.203Z,23.22
2023-03-06T13:24:20.223Z,23.28
2023-03-06T13:25:20.221Z,23.25
2023-03-06T13:26:20.075Z,23.29
2023-03-06T13:38:20.246Z,23.17
2023-03-06T14:14:21.175Z,21.15
2023-03-06T16:20:10.661Z,22.96
2023-03-06T16:25:10.384Z,23.08
2023-03-06T16:26:10.279Z,23.11
2023-03-06T16:27:10.190Z,23.14
2023-03-06T16:28:10.164Z,23.16
2023-03-06T16:29:10.070Z,23.13
2023-03-06T16:30:09.963Z,23.19
2023-03-06T16:31:09.999Z,23.21
2023-03-06T18:40:01.455Z,25.19
2023-03-06T18:49:01.044Z,25.25
2023-03-06T18:50:00.696Z,25.27
2023-03-06T18:51:00.663Z,25.33
2023-03-06T18:52:00.667Z,25.33
2023-03-06T18:53:00.500Z,25.32
2023-03-06T18:54:00.592Z,25.29
2023-03-06T18:55:00.434Z,25.34
2023-03-06T18:56:00.371Z,25.30
2023-03-06T18:57:00.318Z,25.34
2023-03-06T18:58:00.152Z,25.38
2023-03-06T18:59:00.164Z,25.43
2023-03-06T19:00:00.072Z,25.37
2023-03-06T19:01:00.215Z,25.40
2023-03-06T20:16:55.191Z,26.17
2023-03-06T20:17:56.715Z,26.18
2023-03-06T20:18:54.915Z,26.18
2023-03-06T20:19:54.899Z,26.17
2023-03-06T20:20:54.788Z,26.10
2023-03-06T20:21:54.728Z,26.15
2023-03-06T20:22:54.799Z,26.19
2023-03-06T20:23:54.560Z,26.25
2023-03-06T20:24:54.516Z,26.15
2023-03-06T20:25:54.485Z,26.25
2023-03-06T20:26:54.367Z,26.22
2023-03-06T20:27:54.459Z,26.19
2023-03-06T20:28:54.236Z,26.25
2023-03-06T20:29:54.175Z,26.25
2023-03-06T20:30:54.123Z,26.33
2023-03-06T20:31:54.034Z,26.30
2023-03-06T20:32:54.280Z,26.24
2023-03-06T20:33:53.933Z,26.28
2023-03-06T20:34:53.904Z,26.26
2023-03-06T20:35:53.846Z,26.30
2023-03-06T20:36:53.727Z,26.26
2023-03-06T20:37:53.661Z,26.29
2023-03-06T20:38:53.542Z,26.29
2023-03-06T20:39:53.507Z,26.35
2023-03-06T20:40:53.489Z,26.28
2023-03-06T20:41:53.406Z,26.32
2023-03-06T20:42:53.306Z,26.33
2023-03-06T20:43:53.219Z,26.33
2023-03-06T20:44:53.174Z,26.36
2023-03-06T20:45:53.120Z,26.42
2023-03-06T20:46:53.060Z,26.32
2023-03-06T20:47:53.072Z,26.36
2023-03-06T20:48:52.995Z,26.35
2023-03-06T20:49:52.837Z,26.46
2023-03-06T20:50:52.791Z,26.42
2023-03-06T20:51:52.736Z,26.35
2023-03-06T20:52:52.722Z,26.35
2023-03-06T20:53:52.586Z,26.40
2023-03-06T20:54:52.527Z,26.46
2023-03-06T20:55:52.476Z,26.40
2023-03-06T20:56:52.410Z,26.42
2023-03-06T20:57:52.474Z,26.43
2023-03-06T20:58:52.292Z,26.47
2023-03-06T20:59:52.275Z,26.47
2023-03-06T21:00:52.136Z,26.43
2023-03-06T21:01:52.102Z,26.47
2023-03-06T21:02:52.017Z,26.43
2023-03-06T21:03:51.950Z,26.46
2023-03-06T21:04:51.909Z,26.45
2023-03-06T21:05:51.806Z,26.52
2023-03-06T21:06:51.763Z,26.49
2023-03-06T21:07:51.685Z,26.49
2023-03-06T21:08:51.632Z,26.54
2023-03-06T21:09:51.557Z,26.50
2023-03-06T21:10:51.516Z,26.53
2023-03-06T21:11:51.462Z,26.60
2023-03-06T21:12:51.375Z,26.60
2023-03-06T21:13:51.302Z,26.61
2023-03-06T21:14:51.270Z,26.55
2023-03-06T21:15:51.243Z,26.53
2023-03-06T21:16:51.134Z,26.58
2023-03-06T21:17:51.067Z,26.57
2023-03-06T21:18:51.039Z,26.60
2023-03-06T21:19:51.026Z,26.60
2023-03-06T21:20:50.939Z,26.58
2023-03-06T21:21:50.833Z,26.63
2023-03-06T21:22:50.808Z,26.62
2023-03-06T21:24:51.737Z,26.58
2023-03-06T21:25:51.174Z,26.60
2023-03-06T21:26:50.551Z,26.66
2023-03-06T21:27:50.459Z,26.61
2023-03-06T21:28:50.448Z,26.60
2023-03-06T21:29:50.404Z,26.63
2023-03-06T21:30:50.272Z,26.64
2023-03-06T21:31:50.220Z,26.65
2023-03-06T21:32:50.166Z,26.67
2023-03-06T21:33:50.119Z,26.62
2023-03-06T21:34:50.022Z,26.68
2023-03-06T21:35:49.991Z,26.73
2023-03-06T23:03:44.389Z,27.06
2023-03-06T23:05:44.287Z,27.15
2023-03-06T23:06:44.240Z,27.07
2023-03-06T23:07:44.215Z,27.15
2023-03-06T23:08:44.099Z,27.09
2023-03-06T23:09:44.128Z,27.11
2023-03-06T23:10:44.002Z,27.11
2023-03-06T23:11:43.920Z,27.13
2023-03-06T23:12:43.859Z,27.11
2023-03-06T23:13:43.784Z,27.13
2023-03-06T23:14:43.756Z,27.11
2023-03-06T23:15:43.707Z,27.10
2023-03-06T23:16:43.580Z,27.21
2023-03-06T23:17:43.585Z,27.17
2023-03-06T23:18:43.455Z,27.14
2023-03-06T23:19:43.383Z,27.11
2023-03-06T23:20:43.310Z,27.13
2023-03-06T23:21:43.256Z,27.21
2023-03-06T23:22:43.223Z,27.18
2023-03-06T23:23:43.190Z,27.16
2023-03-06T23:24:43.065Z,27.11
2023-03-06T23:25:43.013Z,27.15
2023-03-06T23:26:42.977Z,27.16
2023-03-06T23:27:42.937Z,27.20
2023-03-06T23:28:42.856Z,27.19
2023-03-06T23:29:42.861Z,27.20
2023-03-06T23:30:42.830Z,27.19
2023-03-06T23:31:42.666Z,27.23
2023-03-06T23:32:44.291Z,27.23
2023-03-06T23:33:42.503Z,27.20
2023-03-06T23:34:42.463Z,27.17
2023-03-06T23:35:42.488Z,27.20
2023-03-06T23:36:42.294Z,27.17
2023-03-06T23:37:42.231Z,27.17
2023-03-06T23:38:42.174Z,27.20
2023-03-06T23:39:42.091Z,27.20
2023-03-06T23:40:42.043Z,27.21
2023-03-06T23:41:42.014Z,27.20
2023-03-06T23:42:41.965Z,27.23
2023-03-06T23:43:41.854Z,27.21
2023-03-06T23:44:41.834Z,27.24
2023-03-06T23:45:41.729Z,27.18
2023-03-06T23:46:41.644Z,27.23
2023-03-06T23:47:41.629Z,27.24
2023-03-06T23:48:41.560Z,27.24
2023-03-06T23:49:41.459Z,27.22
2023-03-06T23:50:41.402Z,27.24
2023-03-06T23:51:41.345Z,27.24
2023-03-06T23:52:41.260Z,27.24
2023-03-06T23:53:41.214Z,27.27
2023-03-06T23:54:41.143Z,27.27
2023-03-06T23:55:41.110Z,27.28
2023-03-06T23:56:40.996Z,27.27
2023-03-06T23:57:40.949Z,27.25
2023-03-06T23:58:40.885Z,27.30
2023-03-06T23:59:40.822Z,27.26
